Orlando Sanford International Airport
KSFB : now visible

Airfield :











YOU CAN JOIN US ON...

 
LOGIN :

Register | Disclaimer

   EN    FR    IT 

 









Legend :    VFR   Marginal VFR   IFR   Intensive IFR   Very Intensive IFR
Visi :
Ceiling :
>= 8 km
>= 3000ft
5 to 8 km
1000 to 3000 ft
1500m to 5 km
500 to 1000 ft
800 to 1500m
200 to 500 ft
< 800m
< 200 ft
Symbols :   Thunderstorms  Fog  Heavy snow  Heavy precipitations  Wind > 20 kt






- Airport Elevation : 55 ft
- IATA code : SFB


KSFB - Orlando Sanford International

CURRENT METAR :
  • 261853Z 20007KT 10SM FEW024 26/18 A3000 RMK AO2 SLP157 T02610178

EXPIRED METARs :
  • 261838Z 22009KT 10SM SCT024 26/17 A3001 RMK AO2 T02560172
  • 261753Z 22008KT 10SM BKN021 24/18 A3003 RMK AO2 SLP168 T02440178 10250 20156 58011
  • 261653Z 22011G17KT 10SM OVC019 24/18 A3005 RMK AO2 SLP173 T02390178

TAF KSFB
Valid from the 26 at 18:00 until the 27 at 18:00 UTC


261739Z 2618/2718 22011G18KT P6SM SCT025
TEMPO 2618/2620 BKN020
FM262300 20005KT P6SM SCT250
FM270700 VRB03KT 4SM BR SCT006
TEMPO 2710/2714 1/2SM FG BKN003
FM271500 22010KT P6SM SCT015 BKN070
KZJX FIR / North America



MET'MAP, your aeronautical weather chart ! - Copyright ORBIFLY December 2007 - Disclaimer

ORBIFLY MET'MAP TEAM :

Programming & Development : Alexandra Zaïnal
Concept & original design : Baudouin d'Aumeries
Assistance for programming : Marc-Olivier Méhu
Technical & hardware support : Manuel Goepfert

Contact : metmap@orbifly.com




SOURCES & CREDITS :

   NOAA       Earth
Advisory